Terminal Aerodrome Forecast
Issued by NWS

Home | Current Version | Previous Version | Text Only | Print | Product List | Glossary On
Versions: 1 2 3 4 5 6 7 8 9 10 11 12 13 14 15 16
000
FTUS46 KMTR 222300
TAFOAK
TAF
KOAK 222340Z 2300/2406 27013KT P6SM SCT025 BKN050
     FM230300 27015KT P6SM BKN020
     FM230600 26010KT P6SM OVC015
      TEMPO 2306/2310 -DZ OVC009
     FM231000 26008KT P6SM OVC010
     FM231900 29014KT P6SM SCT020 BKN030
     FM240300 29009KT P6SM BKN020=

USA.gov is the U.S. government's official web portal to all federal, state and local government web resources and services.